createdAt,value
2023-03-22T00:01:21.275Z,59.60
2023-03-22T00:03:50.757Z,59.60
2023-03-22T00:06:20.407Z,59.70
2023-03-22T00:08:51.537Z,59.60
2023-03-22T00:11:20.337Z,59.70
2023-03-22T00:13:48.368Z,59.80
2023-03-22T00:16:17.539Z,59.80
2023-03-22T00:18:46.313Z,59.80
2023-03-22T00:21:16.953Z,59.80
2023-03-22T00:23:46.860Z,59.80
2023-03-22T00:26:16.289Z,59.80
2023-03-22T00:28:44.439Z,60.50
2023-03-22T00:31:12.558Z,59.70
2023-03-22T00:33:40.729Z,59.80
2023-03-22T00:36:11.922Z,59.70
2023-03-22T00:38:43.502Z,59.70
2023-03-22T00:41:16.132Z,59.70
2023-03-22T00:43:45.174Z,59.70
2023-03-22T00:46:14.557Z,59.70
2023-03-22T00:48:42.899Z,59.70
2023-03-22T00:51:12.042Z,59.70
2023-03-22T00:53:43.124Z,59.70
2023-03-22T00:56:15.721Z,59.70
2023-03-22T00:58:44.413Z,59.60
2023-03-22T01:01:14.046Z,59.60
2023-03-22T01:03:43.190Z,59.60
2023-03-22T01:06:12.152Z,59.60
2023-03-22T01:08:40.228Z,59.60
2023-03-22T01:11:09.131Z,59.60
2023-03-22T01:13:39.397Z,59.60
2023-03-22T01:16:09.240Z,59.60
2023-03-22T01:18:37.869Z,59.60
2023-03-22T01:21:06.576Z,59.60
2023-03-22T01:23:34.987Z,59.60
2023-03-22T01:26:03.387Z,59.70
2023-03-22T01:28:32.153Z,59.70
2023-03-22T01:31:04.246Z,59.70
2023-03-22T01:33:32.367Z,59.70
2023-03-22T01:36:00.458Z,59.80
2023-03-22T01:38:28.541Z,59.80
2023-03-22T01:40:57.179Z,59.80
2023-03-22T01:43:25.348Z,59.80
2023-03-22T01:45:54.060Z,59.90
2023-03-22T01:48:27.718Z,59.90
2023-03-22T01:51:05.421Z,59.80
2023-03-22T01:53:38.115Z,59.90
2023-03-22T01:56:07.311Z,59.90
2023-03-22T01:58:38.371Z,59.90
2023-03-22T02:01:08.724Z,60.00
2023-03-22T02:03:42.598Z,60.00
2023-03-22T02:06:10.706Z,60.00
2023-03-22T02:08:40.544Z,59.90
2023-03-22T02:11:14.283Z,59.90
2023-03-22T02:14:11.832Z,59.90
2023-03-22T02:16:47.039Z,60.00
2023-03-22T02:20:07.693Z,59.90
2023-03-22T02:22:58.162Z,59.90
2023-03-22T02:25:54.214Z,59.80
2023-03-22T02:28:33.919Z,59.80
2023-03-22T02:31:17.120Z,59.80
2023-03-22T02:34:18.144Z,59.90
2023-03-22T02:37:15.815Z,59.80
2023-03-22T02:39:52.224Z,59.80
2023-03-22T02:42:43.905Z,59.80
2023-03-22T02:45:16.073Z,59.80
2023-03-22T02:47:54.479Z,59.80
2023-03-22T02:50:28.445Z,59.80
2023-03-22T02:53:04.170Z,59.80
2023-03-22T02:55:38.931Z,59.80
2023-03-22T02:58:13.383Z,59.80
2023-03-22T03:00:43.568Z,59.90
2023-03-22T03:03:18.253Z,59.90
2023-03-22T03:05:48.882Z,59.90
2023-03-22T03:08:19.208Z,59.90
2023-03-22T03:10:49.254Z,59.90
2023-03-22T03:13:19.782Z,60.00
2023-03-22T03:15:52.785Z,59.90
2023-03-22T03:18:35.054Z,60.00
2023-03-22T03:21:09.940Z,60.00
2023-03-22T03:23:50.511Z,60.00
2023-03-22T03:26:26.209Z,60.00
2023-03-22T03:29:00.200Z,60.00
2023-03-22T03:31:36.357Z,60.00
2023-03-22T03:34:12.481Z,60.10
2023-03-22T03:36:47.205Z,60.00
2023-03-22T03:39:18.446Z,60.00
2023-03-22T03:41:51.317Z,60.10
2023-03-22T03:44:20.358Z,60.10
2023-03-22T03:46:50.035Z,60.20
2023-03-22T03:49:19.247Z,60.20
2023-03-22T03:51:49.689Z,60.30
2023-03-22T03:54:17.842Z,60.30
2023-03-22T03:56:48.436Z,60.30
2023-03-22T03:59:16.981Z,60.50
2023-03-22T04:01:50.150Z,60.40
2023-03-22T04:04:26.345Z,61.20
2023-03-22T04:06:56.825Z,60.50
2023-03-22T04:09:26.903Z,60.50
2023-03-22T04:11:57.340Z,60.60
2023-03-22T04:14:26.422Z,60.60
2023-03-22T04:16:55.116Z,60.70
2023-03-22T04:19:23.789Z,60.70
2023-03-22T04:21:53.184Z,60.80
2023-03-22T04:24:22.098Z,60.60
2023-03-22T04:26:50.338Z,60.70
2023-03-22T04:29:19.796Z,60.70
2023-03-22T04:31:47.849Z,60.80
2023-03-22T04:34:15.862Z,60.70
2023-03-22T04:36:45.124Z,60.80
2023-03-22T04:39:13.373Z,60.90
2023-03-22T04:41:41.556Z,60.80
2023-03-22T04:44:09.629Z,61.00
2023-03-22T04:46:39.231Z,60.90
2023-03-22T04:49:07.659Z,61.00
2023-03-22T04:51:35.750Z,61.00
2023-03-22T04:54:03.802Z,61.10
2023-03-22T04:56:31.845Z,61.20
2023-03-22T04:58:59.866Z,61.20
2023-03-22T05:01:28.008Z,61.20
2023-03-22T05:03:57.458Z,61.10
2023-03-22T05:06:25.507Z,61.20
2023-03-22T05:08:53.536Z,61.20
2023-03-22T05:11:21.971Z,61.30
2023-03-22T05:13:50.030Z,61.40
2023-03-22T05:16:18.068Z,61.40
2023-03-22T05:18:46.125Z,62.10
2023-03-22T05:21:18.073Z,61.50
2023-03-22T05:23:47.139Z,61.50
2023-03-22T05:26:16.180Z,61.50
2023-03-22T05:28:44.831Z,61.60
2023-03-22T05:31:15.536Z,61.60
2023-03-22T05:33:44.087Z,61.60
2023-03-22T05:36:12.602Z,61.70
2023-03-22T05:38:42.371Z,61.60
2023-03-22T05:41:10.685Z,61.70
2023-03-22T05:43:39.327Z,61.80
2023-03-22T05:46:08.247Z,61.80
2023-03-22T05:48:37.030Z,61.80
2023-03-22T05:51:07.957Z,61.80
2023-03-22T05:53:36.450Z,61.90
2023-03-22T05:56:09.920Z,61.90
2023-03-22T05:58:38.305Z,61.90
2023-03-22T06:01:07.687Z,61.90
2023-03-22T06:03:35.955Z,61.90
2023-03-22T06:06:06.754Z,62.00
2023-03-22T06:08:35.238Z,62.00
2023-03-22T06:11:03.254Z,62.00
2023-03-22T06:13:33.009Z,62.10
2023-03-22T06:16:01.402Z,62.10
2023-03-22T06:18:29.641Z,62.10
2023-03-22T06:20:58.139Z,62.00
2023-03-22T06:23:26.266Z,62.10
2023-03-22T06:25:54.355Z,62.00
2023-03-22T06:28:22.465Z,62.10
2023-03-22T06:30:51.969Z,62.20
2023-03-22T06:33:19.996Z,62.10
2023-03-22T06:35:48.059Z,62.10
2023-03-22T06:38:16.124Z,62.10
2023-03-22T06:40:44.498Z,61.90
2023-03-22T06:43:12.525Z,62.00
2023-03-22T06:45:40.734Z,62.00
2023-03-22T06:48:10.464Z,61.90
2023-03-22T06:50:40.366Z,61.90
2023-03-22T06:53:09.826Z,61.90
2023-03-22T06:55:37.969Z,61.90
2023-03-22T06:58:05.989Z,61.80
2023-03-22T07:00:34.304Z,61.80
2023-03-22T07:03:03.310Z,61.80
2023-03-22T07:05:32.742Z,61.80
2023-03-22T07:08:00.785Z,61.70
2023-03-22T07:10:28.879Z,61.70
2023-03-22T07:12:57.293Z,61.60
2023-03-22T07:15:25.391Z,61.40
2023-03-22T07:17:53.416Z,61.40
2023-03-22T07:20:21.900Z,61.30
2023-03-22T07:22:52.342Z,61.20
2023-03-22T07:25:20.698Z,61.10
2023-03-22T07:27:48.790Z,61.10
2023-03-22T07:30:16.935Z,61.00
2023-03-22T07:32:44.984Z,61.10
2023-03-22T07:35:13.010Z,61.10
2023-03-22T07:37:41.516Z,61.00
2023-03-22T07:40:12.433Z,60.80
2023-03-22T07:42:40.446Z,60.80
2023-03-22T07:45:09.239Z,60.80
2023-03-22T07:47:43.771Z,60.70
2023-03-22T07:50:13.222Z,60.50
2023-03-22T07:52:41.762Z,60.20
2023-03-22T07:55:13.815Z,60.10
2023-03-22T07:57:42.113Z,59.90
2023-03-22T08:00:11.999Z,59.80
2023-03-22T08:02:40.191Z,59.80
2023-03-22T08:05:09.018Z,59.70
2023-03-22T08:07:37.509Z,59.60
2023-03-22T08:10:06.541Z,59.60
2023-03-22T08:12:36.373Z,59.50
2023-03-22T08:15:04.626Z,59.50
2023-03-22T08:17:32.722Z,59.20
2023-03-22T08:20:00.788Z,59.00
2023-03-22T08:22:30.142Z,58.90
2023-03-22T08:24:58.229Z,58.80
2023-03-22T08:27:26.282Z,58.70
2023-03-22T08:29:55.882Z,58.50
2023-03-22T08:32:23.923Z,58.50
2023-03-22T08:34:52.769Z,58.60
2023-03-22T08:37:21.293Z,58.40
2023-03-22T08:39:49.408Z,58.30
2023-03-22T08:42:17.527Z,58.20
2023-03-22T08:44:46.102Z,58.20
2023-03-22T08:47:15.521Z,58.00
2023-03-22T08:49:43.676Z,57.70
2023-03-22T08:52:11.912Z,57.50
2023-03-22T08:54:39.957Z,57.40
2023-03-22T08:57:09.522Z,57.40
2023-03-22T08:59:37.579Z,57.30
2023-03-22T09:02:05.802Z,57.10
2023-03-22T09:04:35.382Z,57.00
2023-03-22T09:07:03.795Z,57.00
2023-03-22T09:09:31.861Z,56.90
2023-03-22T09:11:59.879Z,56.80
2023-03-22T09:14:28.033Z,56.70
2023-03-22T09:16:56.142Z,56.70
2023-03-22T09:19:24.215Z,56.70
2023-03-22T09:21:53.731Z,56.40
2023-03-22T09:24:21.926Z,56.40
2023-03-22T09:26:50.439Z,56.40
2023-03-22T09:29:19.513Z,56.20
2023-03-22T09:31:48.909Z,56.30
2023-03-22T09:34:17.835Z,56.30
2023-03-22T09:36:46.271Z,56.20
2023-03-22T09:39:16.324Z,56.00
2023-03-22T09:41:49.427Z,55.80
2023-03-22T09:44:23.299Z,55.80
2023-03-22T09:46:55.230Z,55.70
2023-03-22T09:49:27.981Z,55.60
2023-03-22T09:51:56.884Z,55.40
2023-03-22T09:54:32.795Z,55.30
2023-03-22T09:57:04.680Z,54.90
2023-03-22T09:59:41.757Z,54.90
2023-03-22T10:02:32.733Z,54.60
2023-03-22T10:05:13.701Z,54.30
2023-03-22T10:07:58.423Z,54.20
2023-03-22T10:10:28.290Z,54.00
2023-03-22T10:13:01.748Z,53.90
2023-03-22T10:15:36.050Z,53.40
2023-03-22T10:18:07.814Z,53.00
2023-03-22T10:20:39.927Z,52.70
2023-03-22T10:23:13.558Z,52.40
2023-03-22T10:25:44.108Z,52.10
2023-03-22T10:28:19.378Z,51.70
2023-03-22T10:30:53.273Z,51.40
2023-03-22T10:33:32.537Z,51.00
2023-03-22T10:36:02.352Z,50.40
2023-03-22T10:38:32.282Z,49.80
2023-03-22T10:41:02.641Z,49.00
2023-03-22T10:43:36.128Z,48.40
2023-03-22T10:46:08.118Z,47.80
2023-03-22T10:48:37.749Z,47.50
2023-03-22T10:51:06.390Z,47.10
2023-03-22T10:53:39.442Z,46.70
2023-03-22T10:56:15.544Z,46.00
2023-03-22T10:58:43.908Z,45.50
2023-03-22T11:01:14.514Z,45.10
2023-03-22T11:06:14.320Z,43.10
2023-03-22T11:08:45.523Z,42.90
2023-03-22T11:11:24.231Z,42.30
2023-03-22T11:14:01.014Z,41.40
2023-03-22T11:16:30.160Z,41.00
2023-03-22T11:19:02.080Z,40.40
2023-03-22T11:21:33.623Z,39.90
2023-03-22T11:24:05.797Z,39.30
2023-03-22T11:26:40.634Z,38.80
2023-03-22T11:29:17.392Z,38.30
2023-03-22T11:31:57.542Z,37.80
2023-03-22T11:34:28.426Z,37.00
2023-03-22T11:36:57.875Z,36.80
2023-03-22T11:39:28.580Z,36.50
2023-03-22T11:42:01.561Z,36.00
2023-03-22T11:44:33.964Z,35.30
2023-03-22T11:47:04.028Z,34.90
2023-03-22T11:49:41.461Z,34.40
2023-03-22T11:52:12.202Z,33.90
2023-03-22T11:54:42.535Z,33.70
2023-03-22T11:57:17.037Z,33.30
2023-03-22T11:59:51.335Z,32.10
2023-03-22T12:02:24.721Z,32.40
2023-03-22T12:05:00.677Z,32.10
2023-03-22T12:07:31.259Z,31.90
2023-03-22T12:10:04.125Z,31.70
2023-03-22T12:12:38.033Z,31.30
2023-03-22T12:17:39.812Z,29.90
2023-03-22T12:20:21.264Z,30.20
2023-03-22T12:22:53.291Z,29.90
2023-03-22T12:25:24.302Z,30.00
2023-03-22T12:27:56.493Z,29.70
2023-03-22T12:30:27.858Z,29.40
2023-03-22T12:33:01.702Z,29.20
2023-03-22T12:35:34.351Z,28.90
2023-03-22T12:38:10.440Z,28.30
2023-03-22T12:40:41.653Z,28.70
2023-03-22T12:43:17.838Z,28.60
2023-03-22T12:45:50.067Z,28.20
2023-03-22T12:48:21.113Z,28.10
2023-03-22T12:50:53.278Z,28.00
2023-03-22T12:53:23.029Z,27.80
2023-03-22T12:55:52.019Z,27.90
2023-03-22T12:58:23.193Z,27.90
2023-03-22T13:00:56.094Z,28.00
2023-03-22T13:03:29.096Z,28.20
2023-03-22T13:06:03.221Z,28.60
2023-03-22T13:09:13.114Z,28.80
2023-03-22T13:11:41.521Z,29.10
2023-03-22T13:14:13.854Z,29.70
2023-03-22T13:16:56.687Z,29.90
2023-03-22T13:19:31.522Z,29.90
2023-03-22T13:22:17.507Z,30.00
2023-03-22T13:25:07.303Z,30.00
2023-03-22T13:27:38.840Z,30.10
2023-03-22T13:30:18.261Z,30.40
2023-03-22T13:32:56.187Z,30.00
2023-03-22T13:35:28.360Z,30.00
2023-03-22T13:38:03.986Z,30.20
2023-03-22T13:40:37.710Z,30.30
2023-03-22T13:43:14.476Z,30.60
2023-03-22T13:46:27.475Z,30.90
2023-03-22T13:49:15.298Z,31.40
2023-03-22T13:51:45.059Z,31.80
2023-03-22T13:54:19.614Z,32.00
2023-03-22T13:56:56.954Z,32.30
2023-03-22T13:59:30.232Z,32.40
2023-03-22T14:02:04.808Z,32.80
2023-03-22T14:04:40.603Z,33.00
2023-03-22T14:07:19.484Z,33.00
2023-03-22T14:09:52.560Z,33.20
2023-03-22T14:12:23.930Z,33.30
2023-03-22T14:14:56.845Z,33.20
2023-03-22T14:17:35.408Z,33.10
2023-03-22T14:20:08.311Z,32.90
